Spirit of New Zealand — ZMSV — position and weather

sailwx.info

Track history (hours):
 
Tides and Currents Weather Stations Pressure Air Temp Water Temp Dewpoint Dewpoint Depression Visibility Wind Speed Wind Dir Waves Ship Positions

Spirit of New Zealand

Last reported at 2018-Jul-29 05:03 UTC. Time now 2018-Aug-14 07:04 UTC.
Position S 36°22' E 174°54'.
Warning: this ship's position is 16 days out of date.

Length 37 m; draft 4.1 m.

Type: Passenger vessel. MMSI: 512201000.

Date/timePositionNaut miles runAvg speedWind from/ knotsBaromVisibWave heightAir tempDewpointWater temp
2018-Jul-29 05:03S 36°22' E 174°54'1 8.0
2018-Jul-29 04:57S 36°23' E 174°54'4 8.0
2018-Jul-29 04:30S 36°26' E 174°54'4 8.2
2018-Jul-29 04:00S 36°30' E 174°53'4 8.5
2018-Jul-29 03:29S 36°35' E 174°52'4 8.2
2018-Jul-29 03:00S 36°39' E 174°51'5 8.5
2018-Jul-29 02:27S 36°43' E 174°50'4 8.8
2018-Jul-29 02:00S 36°47' E 174°48'3 6.4
2018-Jul-29 01:29S 36°50' E 174°48'2 0.8
2018-Jul-28 23:26S 36°51' E 174°46'2 3.4
2018-Jul-28 22:57S 36°50' E 174°48'1 2.6
2018-Jul-28 22:30S 36°50' E 174°49'1 0.8
2018-Jul-28 21:17S 36°49' E 174°49'3 5.2
2018-Jul-28 20:40S 36°50' E 174°46'0 0.0
2018-Jul-28 04:35S 36°51' E 174°46'0 0.0
2018-Jul-28 04:30S 36°51' E 174°46'1 2.2
2018-Jul-28 03:59S 36°50' E 174°47'2 5.2
2018-Jul-28 03:30S 36°48' E 174°49'4 7.1
2018-Jul-28 03:00S 36°44' E 174°48'3 5.8
2018-Jul-28 02:30S 36°42' E 174°48'2 3.7
2018-Jul-28 01:59S 36°40' E 174°47'0 0.9
2018-Jul-28 01:28S 36°39' E 174°47'0 0.6
2018-Jul-28 00:57S 36°39' E 174°47'0 0.0
2018-Jul-28 00:27S 36°39' E 174°47'0 0.0
2018-Jul-28 00:00S 36°39' E 174°47'1 2.3
2018-Jul-27 23:30S 36°40' E 174°48'1 1.1
2018-Jul-27 23:00S 36°41' E 174°48'2 3.0
2018-Jul-27 22:30S 36°42' E 174°49'3 5.8
2018-Jul-27 22:00S 36°45' E 174°48'4 6.9
2018-Jul-27 21:29S 36°48' E 174°49'3 6.8
2018-Jul-27 20:59S 36°50' E 174°46'0 0.0
2018-Jul-27 05:58S 36°51' E 174°46'0 0.0
2018-Jul-26 07:51S 36°51' E 174°46'1 0.6
2018-Jul-26 06:42S 36°50' E 174°45'1 0.0
2018-Jul-24 18:51S 36°50' E 174°46'1 3.8
2018-Jul-24 18:28S 36°50' E 174°48'1 1.0
2018-Jul-24 17:58S 36°51' E 174°48'0 0.0
2018-Jul-24 17:28S 36°51' E 174°48'0 0.1
2018-Jul-24 16:58S 36°51' E 174°48'0 0.0
2018-Jul-24 16:25S 36°51' E 174°48'0 0.0
2018-Jul-24 15:58S 36°51' E 174°48'0 0.0
2018-Jul-24 15:28S 36°51' E 174°48'0 0.0
2018-Jul-24 14:25S 36°51' E 174°48'0 0.0
2018-Jul-24 13:49S 36°51' E 174°48'0 0.0
2018-Jul-24 13:28S 36°51' E 174°48'0 0.0
2018-Jul-24 12:58S 36°51' E 174°48'0 0.0
2018-Jul-24 12:28S 36°51' E 174°48'0 0.0
2018-Jul-24 11:55S 36°51' E 174°48'0 0.0
2018-Jul-24 11:25S 36°51' E 174°48'0 0.1
2018-Jul-24 10:58S 36°51' E 174°48'0 0.0
2018-Jul-24 10:28S 36°51' E 174°48'0 0.0
2018-Jul-24 09:58S 36°51' E 174°48'0 0.1
2018-Jul-24 09:19S 36°51' E 174°48'0 0.0
2018-Jul-24 08:58S 36°51' E 174°48'0 0.0
2018-Jul-24 08:25S 36°51' E 174°48'0 0.0
2018-Jul-24 07:58S 36°51' E 174°48'0 0.0
2018-Jul-24 07:13S 36°51' E 174°48'0 0.0
2018-Jul-24 06:55S 36°51' E 174°48'0 0.0
2018-Jul-24 06:28S 36°51' E 174°48'0 0.0
2018-Jul-24 05:58S 36°51' E 174°48'0 0.0
2018-Jul-24 05:28S 36°51' E 174°48'0 0.1
2018-Jul-24 04:58S 36°51' E 174°48'2 4.0
2018-Jul-24 04:31S 36°50' E 174°46'2 3.7
2018-Jul-24 04:01S 36°50' E 174°48'7 1.8
2018-Jul-24 00:07S 36°48' E 174°57'0 0.2
2018-Jul-24 00:00S 36°48' E 174°57'4 7.2
2018-Jul-23 23:30S 36°44' E 174°56'4 7.6
2018-Jul-23 22:56S 36°41' E 174°54'3 7.9
2018-Jul-23 22:30S 36°37' E 174°53'4 7.0
2018-Jul-23 22:00S 36°34' E 174°51'3 6.3
2018-Jul-23 21:30S 36°33' E 174°47'3 5.5
2018-Jul-23 21:00S 36°32' E 174°44'0 0.4
2018-Jul-23 20:25S 36°32' E 174°44'0 0.0
2018-Jul-23 19:25S 36°32' E 174°44'0 0.0
2018-Jul-23 18:55S 36°32' E 174°44'0 0.0
2018-Jul-23 18:25S 36°32' E 174°44'0 0.0
2018-Jul-23 17:55S 36°32' E 174°44'0 0.0
2018-Jul-23 17:25S 36°32' E 174°44'0 0.0
2018-Jul-23 16:43S 36°32' E 174°44'0 0.0
2018-Jul-23 16:25S 36°32' E 174°44'0 0.0
2018-Jul-23 15:55S 36°32' E 174°44'0 0.0
2018-Jul-23 15:25S 36°32' E 174°44'0 0.0
2018-Jul-23 14:55S 36°32' E 174°44'0 0.0
2018-Jul-23 14:25S 36°32' E 174°44'0 0.0
2018-Jul-23 13:55S 36°32' E 174°44'0 0.0
2018-Jul-23 13:19S 36°32' E 174°44'0 0.0
2018-Jul-23 12:55S 36°32' E 174°44'0 0.0
2018-Jul-23 12:25S 36°32' E 174°44'0 0.0
2018-Jul-23 11:49S 36°32' E 174°44'0 0.0
2018-Jul-23 11:25S 36°32' E 174°44'0 0.0
2018-Jul-23 10:55S 36°32' E 174°44'0 0.0
2018-Jul-23 10:25S 36°32' E 174°44'0 0.0
2018-Jul-23 09:55S 36°32' E 174°44'0 0.0
2018-Jul-23 09:25S 36°32' E 174°44'0 0.0
2018-Jul-23 08:55S 36°32' E 174°44'0 0.0
2018-Jul-23 08:25S 36°32' E 174°44'0 0.0
2018-Jul-23 07:55S 36°32' E 174°44'0 0.0
2018-Jul-23 07:25S 36°32' E 174°44'0 0.0
2018-Jul-23 06:49S 36°32' E 174°44'0 0.0
2018-Jul-23 06:25S 36°32' E 174°44'0 0.0
2018-Jul-23 05:55S 36°32' E 174°44'0 0.0
2018-Jul-23 05:25S 36°32' E 174°44'1 3.6
2018-Jul-23 05:00S 36°32' E 174°46'4 9.1
2018-Jul-23 04:30S 36°30' E 174°51'2 3.9
2018-Jul-23 04:00S 36°30' E 174°53'0 0.3
2018-Jul-23 03:30S 36°30' E 174°53'1 1.1
2018-Jul-23 03:00S 36°30' E 174°54'1 3.0
2018-Jul-23 02:30S 36°30' E 174°52'3 6.3
2018-Jul-23 02:00S 36°27' E 174°50'4 7.3
2018-Jul-23 01:30S 36°25' E 174°46'0 0.0
2018-Jul-23 00:12S 36°25' E 174°46'0 0.3
2018-Jul-23 00:00S 36°25' E 174°46'0 0.0
2018-Jul-22 14:59S 36°25' E 174°46'3 0.1
2018-Jul-21 05:32S 36°23' E 174°49'0 0.0
2018-Jul-21 05:29S 36°23' E 174°49'0 0.0
2018-Jul-21 05:00S 36°23' E 174°49'0 0.0
2018-Jul-21 04:30S 36°23' E 174°49'0 0.0
2018-Jul-21 04:00S 36°23' E 174°49'0 0.0
2018-Jul-21 03:28S 36°23' E 174°49'2 3.6
2018-Jul-21 02:52S 36°23' E 174°52'3 9.1
2018-Jul-21 02:30S 36°23' E 174°56'4 7.0
2018-Jul-21 02:01S 36°22' E 175°00'1 1.8
2018-Jul-21 01:28S 36°22' E 174°60'1 2.9
2018-Jul-21 01:00S 36°20' E 174°60'1 3.0
2018-Jul-21 00:31S 36°19' E 175°01'3 5.7
2018-Jul-21 00:00S 36°18' E 175°04'  
Track history (hours):
 
Tides and Currents Weather Stations Pressure Air Temp Water Temp Dewpoint Dewpoint Depression Visibility Wind Speed Wind Dir Waves Ship Positions

Spirit of New Zealand

Last reported at 2018-Jul-29 05:03 UTC. Time now 2018-Aug-14 07:04 UTC.
Position S 36°22' E 174°54'.
Warning: this ship's position is 16 days out of date.

Length 37 m; draft 4.1 m.

Type: Passenger vessel. MMSI: 512201000.

Date/timePositionNaut miles runAvg speedWind from/ knotsBaromVisibWave heightAir tempDewpointWater temp
2018-Jul-29 05:03S 36°22' E 174°54'1 8.0
2018-Jul-29 04:57S 36°23' E 174°54'4 8.0
2018-Jul-29 04:30S 36°26' E 174°54'4 8.2
2018-Jul-29 04:00S 36°30' E 174°53'4 8.5
2018-Jul-29 03:29S 36°35' E 174°52'4 8.2
2018-Jul-29 03:00S 36°39' E 174°51'5 8.5
2018-Jul-29 02:27S 36°43' E 174°50'4 8.8
2018-Jul-29 02:00S 36°47' E 174°48'3 6.4
2018-Jul-29 01:29S 36°50' E 174°48'2 0.8
2018-Jul-28 23:26S 36°51' E 174°46'2 3.4
2018-Jul-28 22:57S 36°50' E 174°48'1 2.6
2018-Jul-28 22:30S 36°50' E 174°49'1 0.8
2018-Jul-28 21:17S 36°49' E 174°49'3 5.2
2018-Jul-28 20:40S 36°50' E 174°46'0 0.0
2018-Jul-28 04:35S 36°51' E 174°46'0 0.0
2018-Jul-28 04:30S 36°51' E 174°46'1 2.2
2018-Jul-28 03:59S 36°50' E 174°47'2 5.2
2018-Jul-28 03:30S 36°48' E 174°49'4 7.1
2018-Jul-28 03:00S 36°44' E 174°48'3 5.8
2018-Jul-28 02:30S 36°42' E 174°48'2 3.7
2018-Jul-28 01:59S 36°40' E 174°47'0 0.9
2018-Jul-28 01:28S 36°39' E 174°47'0 0.6
2018-Jul-28 00:57S 36°39' E 174°47'0 0.0
2018-Jul-28 00:27S 36°39' E 174°47'0 0.0
2018-Jul-28 00:00S 36°39' E 174°47'1 2.3
2018-Jul-27 23:30S 36°40' E 174°48'1 1.1
2018-Jul-27 23:00S 36°41' E 174°48'2 3.0
2018-Jul-27 22:30S 36°42' E 174°49'3 5.8
2018-Jul-27 22:00S 36°45' E 174°48'4 6.9
2018-Jul-27 21:29S 36°48' E 174°49'3 6.8
2018-Jul-27 20:59S 36°50' E 174°46'0 0.0
2018-Jul-27 05:58S 36°51' E 174°46'0 0.0
2018-Jul-26 07:51S 36°51' E 174°46'1 0.6
2018-Jul-26 06:42S 36°50' E 174°45'1 0.0
2018-Jul-24 18:51S 36°50' E 174°46'1 3.8
2018-Jul-24 18:28S 36°50' E 174°48'1 1.0
2018-Jul-24 17:58S 36°51' E 174°48'0 0.0
2018-Jul-24 17:28S 36°51' E 174°48'0 0.1
2018-Jul-24 16:58S 36°51' E 174°48'0 0.0
2018-Jul-24 16:25S 36°51' E 174°48'0 0.0
2018-Jul-24 15:58S 36°51' E 174°48'0 0.0
2018-Jul-24 15:28S 36°51' E 174°48'0 0.0
2018-Jul-24 14:25S 36°51' E 174°48'0 0.0
2018-Jul-24 13:49S 36°51' E 174°48'0 0.0
2018-Jul-24 13:28S 36°51' E 174°48'0 0.0
2018-Jul-24 12:58S 36°51' E 174°48'0 0.0
2018-Jul-24 12:28S 36°51' E 174°48'0 0.0
2018-Jul-24 11:55S 36°51' E 174°48'0 0.0
2018-Jul-24 11:25S 36°51' E 174°48'0 0.1
2018-Jul-24 10:58S 36°51' E 174°48'0 0.0
2018-Jul-24 10:28S 36°51' E 174°48'0 0.0
2018-Jul-24 09:58S 36°51' E 174°48'0 0.1
2018-Jul-24 09:19S 36°51' E 174°48'0 0.0
2018-Jul-24 08:58S 36°51' E 174°48'0 0.0
2018-Jul-24 08:25S 36°51' E 174°48'0 0.0
2018-Jul-24 07:58S 36°51' E 174°48'0 0.0
2018-Jul-24 07:13S 36°51' E 174°48'0 0.0
2018-Jul-24 06:55S 36°51' E 174°48'0 0.0
2018-Jul-24 06:28S 36°51' E 174°48'0 0.0
2018-Jul-24 05:58S 36°51' E 174°48'0 0.0
2018-Jul-24 05:28S 36°51' E 174°48'0 0.1
2018-Jul-24 04:58S 36°51' E 174°48'2 4.0
2018-Jul-24 04:31S 36°50' E 174°46'2 3.7
2018-Jul-24 04:01S 36°50' E 174°48'7 1.8
2018-Jul-24 00:07S 36°48' E 174°57'0 0.2
2018-Jul-24 00:00S 36°48' E 174°57'4 7.2
2018-Jul-23 23:30S 36°44' E 174°56'4 7.6
2018-Jul-23 22:56S 36°41' E 174°54'3 7.9
2018-Jul-23 22:30S 36°37' E 174°53'4 7.0
2018-Jul-23 22:00S 36°34' E 174°51'3 6.3
2018-Jul-23 21:30S 36°33' E 174°47'3 5.5
2018-Jul-23 21:00S 36°32' E 174°44'0 0.4
2018-Jul-23 20:25S 36°32' E 174°44'0 0.0
2018-Jul-23 19:25S 36°32' E 174°44'0 0.0
2018-Jul-23 18:55S 36°32' E 174°44'0 0.0
2018-Jul-23 18:25S 36°32' E 174°44'0 0.0
2018-Jul-23 17:55S 36°32' E 174°44'0 0.0
2018-Jul-23 17:25S 36°32' E 174°44'0 0.0
2018-Jul-23 16:43S 36°32' E 174°44'0 0.0
2018-Jul-23 16:25S 36°32' E 174°44'0 0.0
2018-Jul-23 15:55S 36°32' E 174°44'0 0.0
2018-Jul-23 15:25S 36°32' E 174°44'0 0.0
2018-Jul-23 14:55S 36°32' E 174°44'0 0.0
2018-Jul-23 14:25S 36°32' E 174°44'0 0.0
2018-Jul-23 13:55S 36°32' E 174°44'0 0.0
2018-Jul-23 13:19S 36°32' E 174°44'0 0.0
2018-Jul-23 12:55S 36°32' E 174°44'0 0.0
2018-Jul-23 12:25S 36°32' E 174°44'0 0.0
2018-Jul-23 11:49S 36°32' E 174°44'0 0.0
2018-Jul-23 11:25S 36°32' E 174°44'0 0.0
2018-Jul-23 10:55S 36°32' E 174°44'0 0.0
2018-Jul-23 10:25S 36°32' E 174°44'0 0.0
2018-Jul-23 09:55S 36°32' E 174°44'0 0.0
2018-Jul-23 09:25S 36°32' E 174°44'0 0.0
2018-Jul-23 08:55S 36°32' E 174°44'0 0.0
2018-Jul-23 08:25S 36°32' E 174°44'0 0.0
2018-Jul-23 07:55S 36°32' E 174°44'0 0.0
2018-Jul-23 07:25S 36°32' E 174°44'0 0.0
2018-Jul-23 06:49S 36°32' E 174°44'0 0.0
2018-Jul-23 06:25S 36°32' E 174°44'0 0.0
2018-Jul-23 05:55S 36°32' E 174°44'0 0.0
2018-Jul-23 05:25S 36°32' E 174°44'1 3.6
2018-Jul-23 05:00S 36°32' E 174°46'4 9.1
2018-Jul-23 04:30S 36°30' E 174°51'2 3.9
2018-Jul-23 04:00S 36°30' E 174°53'0 0.3
2018-Jul-23 03:30S 36°30' E 174°53'1 1.1
2018-Jul-23 03:00S 36°30' E 174°54'1 3.0
2018-Jul-23 02:30S 36°30' E 174°52'3 6.3
2018-Jul-23 02:00S 36°27' E 174°50'4 7.3
2018-Jul-23 01:30S 36°25' E 174°46'0 0.0
2018-Jul-23 00:12S 36°25' E 174°46'0 0.3
2018-Jul-23 00:00S 36°25' E 174°46'0 0.0
2018-Jul-22 14:59S 36°25' E 174°46'3 0.1
2018-Jul-21 05:32S 36°23' E 174°49'0 0.0
2018-Jul-21 05:29S 36°23' E 174°49'0 0.0
2018-Jul-21 05:00S 36°23' E 174°49'0 0.0
2018-Jul-21 04:30S 36°23' E 174°49'0 0.0
2018-Jul-21 04:00S 36°23' E 174°49'0 0.0
2018-Jul-21 03:28S 36°23' E 174°49'2 3.6
2018-Jul-21 02:52S 36°23' E 174°52'3 9.1
2018-Jul-21 02:30S 36°23' E 174°56'4 7.0
2018-Jul-21 02:01S 36°22' E 175°00'1 1.8
2018-Jul-21 01:28S 36°22' E 174°60'1 2.9
2018-Jul-21 01:00S 36°20' E 174°60'1 3.0
2018-Jul-21 00:31S 36°19' E 175°01'3 5.7
2018-Jul-21 00:00S 36°18' E 175°04'  

Dump ship's entire track history